createdAt,value
2022-10-31T00:00:09.891Z,14.74
2022-10-31T00:01:09.821Z,14.69
2022-10-31T00:02:09.895Z,14.69
2022-10-31T00:03:09.811Z,14.65
2022-10-31T00:04:09.791Z,14.57
2022-10-31T00:05:09.793Z,14.65
2022-10-31T00:06:09.764Z,14.64
2022-10-31T00:07:09.755Z,14.64
2022-10-31T00:08:09.754Z,14.65
2022-10-31T00:09:09.739Z,14.67
2022-10-31T00:10:09.718Z,14.64
2022-10-31T00:11:09.713Z,14.62
2022-10-31T00:12:09.706Z,14.61
2022-10-31T00:13:09.777Z,14.62
2022-10-31T00:14:09.676Z,14.52
2022-10-31T00:15:09.667Z,14.50
2022-10-31T00:16:09.655Z,14.53
2022-10-31T00:17:09.644Z,14.52
2022-10-31T00:18:09.646Z,14.52
2022-10-31T00:19:09.622Z,14.47
2022-10-31T00:20:09.609Z,14.38
2022-10-31T00:21:09.619Z,14.42
2022-10-31T00:22:09.591Z,14.46
2022-10-31T00:23:09.588Z,14.42
2022-10-31T00:24:09.565Z,14.38
2022-10-31T00:25:09.557Z,14.44
2022-10-31T00:26:09.543Z,14.47
2022-10-31T00:27:09.539Z,14.46
2022-10-31T00:28:09.559Z,14.38
2022-10-31T00:29:09.511Z,14.44
2022-10-31T00:30:09.504Z,14.42
2022-10-31T00:31:09.491Z,14.38
2022-10-31T00:32:09.480Z,14.44
2022-10-31T00:33:09.476Z,14.37
2022-10-31T00:34:09.455Z,14.46
2022-10-31T00:35:09.447Z,14.34
2022-10-31T00:36:09.433Z,14.32
2022-10-31T00:37:09.440Z,14.34
2022-10-31T00:38:09.420Z,14.32
2022-10-31T00:39:09.404Z,14.24
2022-10-31T00:40:09.394Z,14.13
2022-10-31T00:41:09.391Z,14.27
2022-10-31T00:42:09.367Z,14.20
2022-10-31T00:43:09.386Z,14.20
2022-10-31T00:44:09.351Z,14.14
2022-10-31T00:45:09.336Z,14.14
2022-10-31T00:46:09.323Z,14.16
2022-10-31T00:47:09.312Z,14.19
2022-10-31T00:48:09.311Z,14.19
2022-10-31T00:49:09.294Z,14.10
2022-10-31T00:50:09.278Z,14.09
2022-10-31T00:51:09.271Z,14.02
2022-10-31T00:52:09.259Z,13.98
2022-10-31T00:53:09.276Z,14.04
2022-10-31T00:54:09.240Z,13.95
2022-10-31T00:55:09.231Z,13.91
2022-10-31T00:56:09.213Z,13.89
2022-10-31T00:57:09.207Z,13.91
2022-10-31T00:58:09.250Z,13.92
2022-10-31T00:59:09.185Z,13.84
2022-10-31T01:00:09.173Z,13.88
2022-10-31T01:01:09.278Z,13.92
2022-10-31T01:02:09.295Z,13.99
2022-10-31T01:03:09.148Z,13.89
2022-10-31T01:04:09.127Z,13.91
2022-10-31T01:05:09.116Z,13.99
2022-10-31T01:06:09.103Z,14.04
2022-10-31T01:07:09.097Z,14.04
2022-10-31T01:08:09.130Z,14.07
2022-10-31T01:09:09.089Z,14.17
2022-10-31T01:10:09.060Z,14.19
2022-10-31T01:11:09.060Z,14.20
2022-10-31T01:12:09.037Z,14.21
2022-10-31T01:13:09.053Z,14.21
2022-10-31T01:14:09.015Z,14.27
2022-10-31T01:15:09.006Z,14.17
2022-10-31T01:16:08.991Z,14.24
2022-10-31T01:17:08.985Z,14.29
2022-10-31T01:18:08.978Z,14.29
2022-10-31T01:19:08.965Z,14.31
2022-10-31T01:20:08.948Z,14.29
2022-10-31T01:21:08.936Z,14.42
2022-10-31T01:22:08.925Z,14.38
2022-10-31T01:23:08.927Z,14.31
2022-10-31T01:24:08.910Z,14.35
2022-10-31T01:25:08.918Z,14.32
2022-10-31T01:26:08.881Z,14.29
2022-10-31T01:27:08.884Z,14.21
2022-10-31T01:28:08.869Z,14.27
2022-10-31T01:29:08.851Z,14.27
2022-10-31T01:30:08.837Z,14.14
2022-10-31T01:31:08.832Z,14.20
2022-10-31T01:32:08.817Z,14.19
2022-10-31T01:33:08.822Z,14.19
2022-10-31T01:34:08.793Z,14.19
2022-10-31T01:35:08.784Z,14.20
2022-10-31T01:36:08.773Z,14.07
2022-10-31T01:37:08.764Z,14.19
2022-10-31T01:38:08.761Z,14.17
2022-10-31T01:39:08.740Z,14.13
2022-10-31T01:40:08.727Z,14.04
2022-10-31T01:41:08.733Z,14.09
2022-10-31T01:42:08.708Z,14.19
2022-10-31T01:43:08.767Z,14.09
2022-10-31T01:44:08.695Z,14.09
2022-10-31T01:45:08.671Z,14.16
2022-10-31T01:46:08.659Z,14.17
2022-10-31T01:47:08.651Z,14.14
2022-10-31T01:48:08.648Z,14.24
2022-10-31T01:49:08.629Z,14.19
2022-10-31T01:50:08.621Z,14.20
2022-10-31T01:51:08.607Z,14.24
2022-10-31T01:52:08.603Z,14.21
2022-10-31T01:53:08.585Z,14.21
2022-10-31T01:54:08.573Z,14.19
2022-10-31T01:55:08.563Z,14.28
2022-10-31T01:56:08.549Z,14.25
2022-10-31T01:57:08.567Z,14.24
2022-10-31T01:58:08.612Z,14.21
2022-10-31T01:59:08.522Z,14.27
2022-10-31T02:00:08.527Z,14.35
2022-10-31T02:01:08.663Z,14.27
2022-10-31T02:02:08.732Z,14.29
2022-10-31T02:03:08.474Z,14.27
2022-10-31T02:04:08.463Z,14.43
2022-10-31T02:05:08.459Z,14.31
2022-10-31T02:06:08.439Z,14.37
2022-10-31T02:07:08.448Z,14.37
2022-10-31T02:08:08.417Z,14.37
2022-10-31T02:09:08.407Z,14.34
2022-10-31T02:10:08.394Z,14.34
2022-10-31T02:11:08.383Z,14.34
2022-10-31T02:12:08.383Z,14.29
2022-10-31T02:13:08.420Z,14.35
2022-10-31T02:14:08.352Z,14.32
2022-10-31T02:15:08.341Z,14.37
2022-10-31T02:16:08.328Z,14.37
2022-10-31T02:17:08.331Z,14.32
2022-10-31T02:18:08.306Z,14.29
2022-10-31T02:19:08.298Z,14.24
2022-10-31T02:20:08.283Z,14.24
2022-10-31T02:21:08.274Z,14.20
2022-10-31T02:22:08.272Z,14.24
2022-10-31T02:23:08.252Z,14.19
2022-10-31T02:24:08.241Z,14.21
2022-10-31T02:25:08.231Z,14.21
2022-10-31T02:26:08.226Z,14.31
2022-10-31T02:27:08.219Z,14.31
2022-10-31T02:28:08.267Z,14.29
2022-10-31T02:29:08.205Z,14.37
2022-10-31T02:30:08.178Z,14.24
2022-10-31T02:31:08.164Z,14.21
2022-10-31T02:32:08.179Z,14.24
2022-10-31T02:33:08.149Z,14.24
2022-10-31T02:34:08.129Z,14.31
2022-10-31T02:35:08.122Z,14.28
2022-10-31T02:36:08.109Z,14.27
2022-10-31T02:37:15.178Z,14.27
2022-10-31T02:38:08.098Z,14.21
2022-10-31T02:39:08.079Z,14.27
2022-10-31T02:40:08.072Z,14.19
2022-10-31T02:41:08.057Z,14.24
2022-10-31T02:42:08.062Z,14.28
2022-10-31T02:43:08.081Z,14.24
2022-10-31T02:44:08.025Z,14.20
2022-10-31T02:45:08.034Z,14.20
2022-10-31T02:46:08.008Z,14.14
2022-10-31T02:47:08.004Z,14.10
2022-10-31T02:48:07.983Z,14.09
2022-10-31T02:49:07.978Z,14.06
2022-10-31T02:50:07.959Z,14.02
2022-10-31T02:51:07.951Z,14.06
2022-10-31T02:52:07.948Z,14.01
2022-10-31T02:53:07.931Z,13.96
2022-10-31T02:54:07.922Z,14.02
2022-10-31T02:55:07.909Z,13.99
2022-10-31T02:56:07.895Z,14.02
2022-10-31T02:57:07.895Z,14.01
2022-10-31T02:58:07.943Z,13.99
2022-10-31T02:59:07.861Z,13.99
2022-10-31T03:00:07.850Z,14.01
2022-10-31T03:01:07.947Z,13.87
2022-10-31T03:02:08.053Z,14.02
2022-10-31T03:03:07.815Z,14.01
2022-10-31T03:04:07.808Z,14.01
2022-10-31T03:05:07.792Z,13.96
2022-10-31T03:06:07.784Z,13.91
2022-10-31T03:07:07.791Z,13.91
2022-10-31T03:08:07.765Z,13.89
2022-10-31T03:09:07.753Z,13.91
2022-10-31T03:10:07.738Z,13.88
2022-10-31T03:11:07.727Z,13.95
2022-10-31T03:12:07.739Z,13.94
2022-10-31T03:13:07.712Z,13.89
2022-10-31T03:14:07.705Z,13.92
2022-10-31T03:15:07.682Z,13.94
2022-10-31T03:16:07.679Z,13.91
2022-10-31T03:17:07.718Z,13.92
2022-10-31T03:18:07.654Z,13.94
2022-10-31T03:19:07.638Z,13.89
2022-10-31T03:20:07.630Z,13.96
2022-10-31T03:21:07.631Z,13.96
2022-10-31T03:22:07.606Z,13.95
2022-10-31T03:23:07.598Z,14.02
2022-10-31T03:24:07.583Z,13.96
2022-10-31T03:25:07.572Z,13.99
2022-10-31T03:26:07.598Z,13.95
2022-10-31T03:27:07.554Z,14.02
2022-10-31T03:28:07.603Z,13.94
2022-10-31T03:29:07.529Z,13.95
2022-10-31T03:30:07.521Z,14.01
2022-10-31T03:31:07.672Z,13.98
2022-10-31T03:32:07.503Z,13.96
2022-10-31T03:33:07.506Z,13.94
2022-10-31T03:34:07.476Z,13.98
2022-10-31T03:35:07.463Z,13.99
2022-10-31T03:36:07.479Z,13.99
2022-10-31T03:37:07.440Z,14.01
2022-10-31T03:38:08.041Z,14.01
2022-10-31T03:39:07.418Z,13.98
2022-10-31T03:40:07.411Z,13.92
2022-10-31T03:41:07.412Z,14.01
2022-10-31T03:42:07.387Z,14.04
2022-10-31T03:43:07.502Z,13.96
2022-10-31T03:44:07.367Z,14.01
2022-10-31T03:45:07.401Z,14.01
2022-10-31T03:46:07.352Z,13.95
2022-10-31T03:47:07.331Z,13.94
2022-10-31T03:48:07.323Z,14.01
2022-10-31T03:49:07.324Z,13.95
2022-10-31T03:50:07.298Z,13.99
2022-10-31T03:51:07.295Z,14.10
2022-10-31T03:52:07.274Z,13.99
2022-10-31T03:53:07.262Z,13.98
2022-10-31T03:54:07.254Z,13.95
2022-10-31T03:55:07.241Z,13.98
2022-10-31T03:56:07.243Z,13.98
2022-10-31T03:57:07.220Z,14.02
2022-10-31T03:58:07.254Z,13.98
2022-10-31T03:59:07.194Z,13.98
2022-10-31T04:00:07.186Z,13.98
2022-10-31T04:01:07.280Z,13.98
2022-10-31T04:02:07.258Z,13.98
2022-10-31T04:03:07.153Z,13.98
2022-10-31T04:04:07.143Z,14.06
2022-10-31T04:05:07.151Z,14.07
2022-10-31T04:06:07.145Z,13.98
2022-10-31T04:07:07.108Z,14.06
2022-10-31T04:08:07.098Z,13.98
2022-10-31T04:09:07.082Z,14.07
2022-10-31T04:10:07.074Z,14.06
2022-10-31T04:11:07.077Z,14.04
2022-10-31T04:12:07.052Z,14.04
2022-10-31T04:13:07.166Z,14.07
2022-10-31T04:14:07.035Z,14.01
2022-10-31T04:15:07.018Z,14.07
2022-10-31T04:16:07.786Z,14.14
2022-10-31T04:17:06.994Z,14.10
2022-10-31T04:18:06.992Z,14.10
2022-10-31T04:19:06.979Z,14.09
2022-10-31T04:20:06.967Z,14.06
2022-10-31T04:21:06.989Z,14.09
2022-10-31T04:22:06.940Z,14.04
2022-10-31T04:23:09.878Z,14.02
2022-10-31T04:24:07.920Z,14.10
2022-10-31T04:25:06.909Z,14.01
2022-10-31T04:26:06.920Z,14.07
2022-10-31T04:27:06.895Z,14.13
2022-10-31T04:28:06.937Z,14.07
2022-10-31T04:29:06.891Z,14.09
2022-10-31T04:30:06.857Z,14.10
2022-10-31T04:31:06.860Z,13.96
2022-10-31T04:32:06.848Z,13.98
2022-10-31T04:33:06.819Z,14.09
2022-10-31T04:34:06.810Z,14.07
2022-10-31T04:35:06.799Z,13.95
2022-10-31T04:36:06.800Z,13.94
2022-10-31T04:37:06.792Z,14.06
2022-10-31T04:38:06.765Z,14.04
2022-10-31T04:39:06.754Z,14.07
2022-10-31T04:40:06.745Z,14.04
2022-10-31T04:41:06.858Z,13.98
2022-10-31T04:42:06.719Z,14.09
2022-10-31T04:43:06.783Z,14.10
2022-10-31T04:44:06.706Z,14.06
2022-10-31T04:45:06.691Z,14.06
2022-10-31T04:46:06.693Z,13.99
2022-10-31T04:47:06.663Z,13.94
2022-10-31T04:48:06.659Z,14.01
2022-10-31T04:49:06.644Z,13.92
2022-10-31T04:50:06.631Z,13.88
2022-10-31T04:51:06.631Z,13.91
2022-10-31T04:52:06.610Z,13.99
2022-10-31T04:53:06.617Z,13.95
2022-10-31T04:54:06.652Z,13.88
2022-10-31T04:55:06.576Z,14.02
2022-10-31T04:56:06.577Z,13.87
2022-10-31T04:57:06.554Z,13.99
2022-10-31T04:58:06.786Z,14.01
2022-10-31T04:59:06.544Z,13.98
2022-10-31T05:00:06.530Z,13.95
2022-10-31T05:01:06.679Z,13.96
2022-10-31T05:02:06.604Z,13.95
2022-10-31T05:03:06.494Z,14.04
2022-10-31T05:04:06.478Z,13.96
2022-10-31T05:05:06.465Z,13.96
2022-10-31T05:06:06.471Z,13.95
2022-10-31T05:07:06.443Z,13.99
2022-10-31T05:08:06.439Z,14.01
2022-10-31T05:09:06.446Z,13.98
2022-10-31T05:10:06.414Z,13.98
2022-10-31T05:11:06.412Z,13.99
2022-10-31T05:12:06.390Z,14.01
2022-10-31T05:13:06.621Z,13.87
2022-10-31T05:14:06.365Z,13.95
2022-10-31T05:15:06.368Z,14.01
2022-10-31T05:16:06.370Z,13.94
2022-10-31T05:17:06.339Z,13.98
2022-10-31T05:18:06.333Z,13.91
2022-10-31T05:19:06.362Z,13.98
2022-10-31T05:20:06.302Z,13.99
2022-10-31T05:21:06.301Z,13.99
2022-10-31T05:22:06.280Z,13.94
2022-10-31T05:23:06.268Z,13.87
2022-10-31T05:24:06.257Z,13.88
2022-10-31T05:25:06.261Z,13.98
2022-10-31T05:26:06.302Z,13.99
2022-10-31T05:27:06.222Z,13.89
2022-10-31T05:28:06.210Z,13.92
2022-10-31T05:29:06.200Z,13.89
2022-10-31T05:30:06.203Z,13.95
2022-10-31T05:31:06.191Z,14.01
2022-10-31T05:32:06.165Z,13.95
2022-10-31T05:33:06.157Z,13.98
2022-10-31T05:34:06.143Z,13.95
2022-10-31T05:35:06.131Z,13.98
2022-10-31T05:36:06.142Z,14.02
2022-10-31T05:37:06.115Z,13.91
2022-10-31T05:38:06.104Z,13.98
2022-10-31T05:39:06.091Z,14.02
2022-10-31T05:40:08.298Z,13.96
2022-10-31T05:41:06.097Z,13.92
2022-10-31T05:42:06.056Z,13.88
2022-10-31T05:43:06.043Z,13.92
2022-10-31T05:44:06.097Z,14.04
2022-10-31T05:45:06.020Z,13.94
2022-10-31T05:46:06.028Z,14.02
2022-10-31T05:47:06.000Z,13.92
2022-10-31T05:48:06.046Z,13.96
2022-10-31T05:49:05.979Z,14.01
2022-10-31T05:50:05.967Z,13.99
2022-10-31T05:51:05.971Z,13.94
2022-10-31T05:52:05.945Z,13.96
2022-10-31T05:53:05.938Z,13.96
2022-10-31T05:54:05.948Z,13.94
2022-10-31T05:55:05.918Z,13.98
2022-10-31T05:56:05.913Z,13.91
2022-10-31T05:57:05.905Z,13.95
2022-10-31T05:58:05.882Z,13.92
2022-10-31T05:59:05.865Z,13.88
2022-10-31T06:00:05.867Z,13.96
2022-10-31T06:01:05.884Z,13.84
2022-10-31T06:02:05.833Z,13.91
2022-10-31T06:03:05.885Z,13.95
2022-10-31T06:04:05.812Z,13.99
2022-10-31T06:05:05.852Z,13.91
2022-10-31T06:06:05.808Z,14.01
2022-10-31T06:07:05.779Z,14.02
2022-10-31T06:08:05.772Z,14.02
2022-10-31T06:09:05.754Z,14.01
2022-10-31T06:10:05.747Z,14.09
2022-10-31T06:11:05.750Z,13.98
2022-10-31T06:12:05.726Z,14.10
2022-10-31T06:13:05.730Z,14.16
2022-10-31T06:14:05.702Z,14.19
2022-10-31T06:15:05.690Z,14.19
2022-10-31T06:16:05.705Z,14.17
2022-10-31T06:17:05.679Z,14.17
2022-10-31T06:18:05.665Z,14.20
2022-10-31T06:19:05.649Z,14.31
2022-10-31T06:20:05.660Z,14.32
2022-10-31T06:21:05.634Z,14.32
2022-10-31T06:22:05.613Z,14.37
2022-10-31T06:23:05.871Z,14.44
2022-10-31T06:24:05.600Z,14.38
2022-10-31T06:25:05.580Z,14.44
2022-10-31T06:26:05.583Z,14.68
2022-10-31T06:27:05.558Z,14.67
2022-10-31T06:28:05.548Z,14.68
2022-10-31T06:29:05.549Z,14.74
2022-10-31T06:30:05.538Z,14.83
2022-10-31T06:31:05.513Z,14.98
2022-10-31T06:32:05.502Z,15.02
2022-10-31T06:33:05.491Z,15.13
2022-10-31T06:34:05.479Z,15.23
2022-10-31T06:35:05.515Z,15.20
2022-10-31T06:36:05.460Z,15.31
2022-10-31T06:37:05.445Z,15.45
2022-10-31T06:38:05.791Z,15.59
2022-10-31T06:39:05.429Z,15.60
2022-10-31T06:40:05.452Z,15.75
2022-10-31T06:41:05.408Z,15.81
2022-10-31T06:42:05.393Z,15.79
2022-10-31T06:43:05.380Z,15.89
2022-10-31T06:44:08.114Z,15.88
2022-10-31T06:45:05.399Z,16.04
2022-10-31T06:46:05.353Z,16.22
2022-10-31T06:47:05.362Z,16.35
2022-10-31T06:48:17.251Z,16.48
2022-10-31T06:49:06.331Z,16.48
2022-10-31T06:50:05.321Z,16.59
2022-10-31T06:51:05.292Z,16.56
2022-10-31T06:52:05.285Z,16.63
2022-10-31T06:53:05.331Z,16.53
2022-10-31T06:54:05.263Z,16.45
2022-10-31T06:55:05.267Z,16.38
2022-10-31T06:56:05.239Z,16.53
2022-10-31T06:57:05.227Z,16.55
2022-10-31T06:58:05.651Z,16.71
2022-10-31T06:59:05.209Z,16.86
2022-10-31T07:00:05.231Z,17.08
2022-10-31T07:01:05.397Z,17.17
2022-10-31T07:02:05.327Z,17.38
2022-10-31T07:03:05.205Z,17.62
2022-10-31T07:04:05.157Z,17.85
2022-10-31T07:05:05.153Z,18.03
2022-10-31T07:06:05.132Z,18.18
2022-10-31T07:07:05.123Z,18.27
2022-10-31T07:08:05.106Z,18.24
2022-10-31T07:09:05.095Z,18.36
2022-10-31T07:10:05.163Z,18.28
2022-10-31T07:11:05.079Z,18.49
2022-10-31T07:12:05.067Z,18.67
2022-10-31T07:13:05.052Z,18.87
2022-10-31T07:14:05.042Z,19.08
2022-10-31T07:15:05.057Z,19.28
2022-10-31T07:16:05.045Z,19.55
2022-10-31T07:17:05.028Z,19.68
2022-10-31T07:18:05.005Z,19.76
2022-10-31T07:19:05.030Z,19.88
2022-10-31T07:20:04.989Z,20.08
2022-10-31T07:21:04.965Z,20.27
2022-10-31T07:22:04.964Z,20.47
2022-10-31T07:23:05.451Z,20.59
2022-10-31T07:24:04.957Z,20.65
2022-10-31T07:25:04.961Z,20.84
2022-10-31T07:26:04.913Z,20.96
2022-10-31T07:27:04.920Z,21.05
2022-10-31T07:28:04.888Z,21.17
2022-10-31T07:29:04.936Z,21.23
2022-10-31T07:30:04.880Z,21.35
2022-10-31T07:31:04.860Z,21.36
2022-10-31T07:32:04.843Z,21.39
2022-10-31T07:33:04.850Z,21.51
2022-10-31T07:34:04.831Z,21.60
2022-10-31T07:35:04.842Z,21.75
2022-10-31T07:36:04.798Z,22.02
2022-10-31T07:37:04.788Z,22.12
2022-10-31T07:38:04.781Z,22.34
2022-10-31T07:39:04.769Z,22.43
2022-10-31T07:40:04.810Z,22.57
2022-10-31T07:41:04.746Z,22.53
2022-10-31T07:42:04.733Z,22.65
2022-10-31T07:43:06.740Z,22.59
2022-10-31T07:44:05.713Z,22.67
2022-10-31T07:45:04.763Z,22.72
2022-10-31T07:46:04.715Z,22.68
2022-10-31T07:47:04.683Z,22.71
2022-10-31T07:48:04.671Z,22.71
2022-10-31T07:49:04.676Z,22.90
2022-10-31T07:50:04.664Z,22.87
2022-10-31T07:51:04.643Z,23.07
2022-10-31T07:52:04.626Z,22.84
2022-10-31T07:53:04.619Z,22.75
2022-10-31T07:54:04.618Z,22.78
2022-10-31T07:55:04.628Z,22.74
2022-10-31T07:56:04.589Z,22.75
2022-10-31T07:57:04.574Z,22.68
2022-10-31T07:58:04.565Z,22.43
2022-10-31T07:59:04.554Z,22.35
2022-10-31T08:00:04.549Z,22.34
2022-10-31T08:01:04.832Z,22.29
2022-10-31T08:02:04.529Z,22.17
2022-10-31T08:03:04.696Z,22.17
2022-10-31T08:04:04.503Z,21.82
2022-10-31T08:05:04.510Z,21.53
2022-10-31T08:06:04.496Z,21.13
2022-10-31T08:07:04.467Z,21.05
2022-10-31T08:08:04.604Z,20.90
2022-10-31T08:09:04.450Z,20.74
2022-10-31T08:10:04.451Z,20.53
2022-10-31T08:11:04.442Z,20.31
2022-10-31T08:12:04.414Z,20.23
2022-10-31T08:13:04.430Z,20.03
2022-10-31T08:14:04.391Z,19.80
2022-10-31T08:15:04.378Z,19.68
2022-10-31T08:16:04.403Z,19.55
2022-10-31T08:17:04.363Z,19.50
2022-10-31T08:18:04.356Z,19.40
2022-10-31T08:19:04.351Z,19.35
2022-10-31T08:20:04.411Z,19.17
2022-10-31T08:21:04.329Z,19.08
2022-10-31T08:22:04.300Z,19.06
2022-10-31T08:23:04.308Z,18.97
2022-10-31T08:24:04.277Z,18.79
2022-10-31T08:25:04.285Z,18.82
2022-10-31T08:26:04.256Z,18.72
2022-10-31T08:27:04.264Z,18.68
2022-10-31T08:28:04.240Z,18.65
2022-10-31T08:29:04.229Z,18.67
2022-10-31T08:30:04.235Z,18.64
2022-10-31T08:31:04.207Z,18.65
2022-10-31T08:32:04.190Z,18.76
2022-10-31T08:33:04.186Z,18.68
2022-10-31T08:34:04.170Z,18.58
2022-10-31T08:35:04.171Z,18.62
2022-10-31T08:36:04.153Z,18.57
2022-10-31T08:37:04.160Z,18.55
2022-10-31T08:38:11.949Z,18.55
2022-10-31T08:39:04.118Z,18.47
2022-10-31T08:40:04.137Z,18.46
2022-10-31T08:41:04.109Z,18.47
2022-10-31T08:42:04.084Z,18.49
2022-10-31T08:43:04.080Z,18.40
2022-10-31T08:44:04.066Z,18.47
2022-10-31T08:45:04.074Z,18.46
2022-10-31T08:46:04.038Z,18.50
2022-10-31T08:47:04.033Z,18.54
2022-10-31T08:48:04.517Z,18.55
2022-10-31T08:49:04.012Z,18.64
2022-10-31T08:50:04.005Z,18.64
2022-10-31T08:51:04.025Z,18.64
2022-10-31T08:52:03.976Z,18.73
2022-10-31T08:53:05.541Z,18.76
2022-10-31T08:54:03.976Z,18.91
2022-10-31T08:55:03.967Z,18.84
2022-10-31T08:56:03.934Z,19.02
2022-10-31T08:57:03.925Z,19.17
2022-10-31T08:58:04.302Z,19.31
2022-10-31T08:59:03.901Z,19.46
2022-10-31T09:00:03.912Z,19.68
2022-10-31T09:01:03.994Z,19.91
2022-10-31T09:02:03.950Z,20.00
2022-10-31T09:03:03.855Z,19.97
2022-10-31T09:04:03.842Z,19.97
2022-10-31T09:05:03.841Z,20.13
2022-10-31T09:06:03.995Z,20.31
2022-10-31T09:07:32.761Z,20.39
2022-10-31T09:08:05.101Z,20.30
2022-10-31T09:09:03.806Z,20.41
2022-10-31T09:10:03.792Z,20.68
2022-10-31T09:11:03.769Z,21.06
2022-10-31T09:12:03.753Z,21.46
2022-10-31T09:13:03.784Z,21.74
2022-10-31T09:14:03.730Z,21.85
2022-10-31T09:15:03.732Z,22.09
2022-10-31T09:16:03.709Z,22.01
2022-10-31T09:17:03.701Z,21.90
2022-10-31T09:18:04.170Z,21.82
2022-10-31T09:19:08.674Z,21.76
2022-10-31T09:20:04.676Z,21.79
2022-10-31T09:21:03.656Z,21.78
2022-10-31T09:22:03.644Z,21.66
2022-10-31T09:23:03.663Z,21.66
2022-10-31T09:24:03.622Z,21.57
2022-10-31T09:25:03.638Z,21.81
2022-10-31T09:26:03.605Z,21.85
2022-10-31T09:27:03.598Z,21.78
2022-10-31T09:28:04.106Z,21.88
2022-10-31T09:29:03.589Z,21.82
2022-10-31T09:30:03.569Z,21.92
2022-10-31T09:31:03.571Z,22.01
2022-10-31T09:32:03.540Z,22.07
2022-10-31T09:33:03.529Z,22.10
2022-10-31T09:34:03.513Z,22.38
2022-10-31T09:35:03.550Z,22.69
2022-10-31T09:36:03.492Z,22.77
2022-10-31T09:37:03.487Z,22.87
2022-10-31T09:38:03.807Z,22.97
2022-10-31T09:39:03.462Z,23.11
2022-10-31T09:40:03.460Z,23.04
2022-10-31T09:41:03.467Z,23.02
2022-10-31T09:42:03.430Z,22.84
2022-10-31T09:43:03.421Z,22.71
2022-10-31T09:44:03.405Z,22.46
2022-10-31T09:45:03.412Z,22.16
2022-10-31T09:46:03.385Z,22.14
2022-10-31T09:47:03.381Z,21.76
2022-10-31T09:48:03.657Z,21.64
2022-10-31T09:49:03.355Z,21.51
2022-10-31T09:50:03.353Z,21.26
2022-10-31T09:51:03.348Z,21.06
2022-10-31T09:52:03.395Z,21.02
2022-10-31T09:53:03.754Z,21.08
2022-10-31T09:54:03.304Z,20.90
2022-10-31T09:55:03.302Z,20.68
2022-10-31T09:56:03.278Z,20.56
2022-10-31T09:57:03.285Z,20.46
2022-10-31T09:58:03.257Z,20.34
2022-10-31T09:59:03.245Z,20.39
2022-10-31T10:00:03.245Z,20.27
2022-10-31T10:01:03.344Z,20.21
2022-10-31T10:02:03.248Z,20.15
2022-10-31T10:03:03.522Z,20.10
2022-10-31T10:04:03.187Z,20.46
2022-10-31T10:05:03.204Z,20.74
2022-10-31T10:06:03.244Z,21.04
2022-10-31T10:07:03.157Z,21.23
2022-10-31T10:08:03.148Z,21.51
2022-10-31T10:09:03.138Z,21.79
2022-10-31T10:10:03.135Z,21.95
2022-10-31T10:11:03.113Z,22.17
2022-10-31T10:12:03.106Z,22.38
2022-10-31T10:13:06.421Z,22.44
2022-10-31T10:14:04.117Z,22.46
2022-10-31T10:15:03.094Z,22.43
2022-10-31T10:16:03.059Z,22.28
2022-10-31T10:17:03.049Z,22.01
2022-10-31T10:18:03.056Z,21.83
2022-10-31T10:19:03.035Z,21.74
2022-10-31T10:20:03.027Z,21.56
2022-10-31T10:21:03.006Z,21.42
2022-10-31T10:22:02.994Z,21.05
2022-10-31T10:23:03.389Z,20.68
2022-10-31T10:24:02.979Z,20.53
2022-10-31T10:25:02.979Z,20.54
2022-10-31T10:26:07.424Z,20.42
2022-10-31T10:27:03.940Z,20.31
2022-10-31T10:28:03.323Z,20.25
2022-10-31T10:29:02.940Z,20.23
2022-10-31T10:30:02.923Z,20.16
2022-10-31T10:31:02.897Z,20.12
2022-10-31T10:32:02.885Z,20.08
2022-10-31T10:33:02.876Z,20.15
2022-10-31T10:34:02.862Z,20.05
2022-10-31T10:35:02.862Z,20.06
2022-10-31T10:36:02.839Z,20.09
2022-10-31T10:37:02.850Z,20.02
2022-10-31T10:38:03.087Z,19.93
2022-10-31T10:39:02.812Z,19.86
2022-10-31T10:40:02.804Z,19.93
2022-10-31T10:41:02.786Z,19.83
2022-10-31T10:42:02.775Z,19.79
2022-10-31T10:43:02.766Z,19.87
2022-10-31T10:44:02.761Z,19.83
2022-10-31T10:45:02.770Z,19.72
2022-10-31T10:46:06.432Z,19.78
2022-10-31T10:47:03.719Z,19.69
2022-10-31T10:48:03.039Z,19.65
2022-10-31T10:49:02.699Z,19.72
2022-10-31T10:50:02.733Z,19.76
2022-10-31T10:51:02.679Z,19.75
2022-10-31T10:52:19.412Z,19.69
2022-10-31T10:53:03.655Z,19.69
2022-10-31T10:54:07.851Z,19.60
2022-10-31T10:55:03.655Z,19.58
2022-10-31T10:56:02.630Z,19.57
2022-10-31T10:57:02.610Z,19.57
2022-10-31T10:58:03.131Z,19.60
2022-10-31T10:59:02.591Z,19.66
2022-10-31T11:00:02.590Z,19.60
2022-10-31T11:01:02.741Z,19.65
2022-10-31T11:02:02.555Z,19.66
2022-10-31T11:03:03.044Z,19.61
2022-10-31T11:04:02.539Z,19.66
2022-10-31T11:05:02.541Z,19.61
2022-10-31T11:06:02.519Z,19.63
2022-10-31T11:07:02.518Z,19.70
2022-10-31T11:08:02.499Z,19.66
2022-10-31T11:09:02.483Z,19.55
2022-10-31T11:10:02.488Z,19.54
2022-10-31T11:11:02.464Z,19.61
2022-10-31T11:12:02.452Z,19.58
2022-10-31T11:13:03.057Z,19.68
2022-10-31T11:14:02.429Z,19.61
2022-10-31T11:15:02.443Z,19.66
2022-10-31T11:16:02.414Z,19.68
2022-10-31T11:17:02.414Z,19.66
2022-10-31T11:18:02.386Z,19.72
2022-10-31T11:19:02.376Z,19.69
2022-10-31T11:20:02.400Z,19.76
2022-10-31T11:21:02.359Z,19.72
2022-10-31T11:22:02.345Z,19.72
2022-10-31T11:23:02.339Z,19.76
2022-10-31T11:24:02.323Z,19.68
2022-10-31T11:25:02.324Z,19.72
2022-10-31T11:26:02.303Z,19.66
2022-10-31T11:27:02.292Z,19.75
2022-10-31T11:28:02.292Z,19.83
2022-10-31T11:29:02.269Z,19.75
2022-10-31T11:30:02.274Z,19.84
2022-10-31T11:31:02.250Z,19.76
2022-10-31T11:32:02.247Z,19.80
2022-10-31T11:33:02.740Z,19.80
2022-10-31T11:34:02.216Z,19.73
2022-10-31T11:35:02.262Z,19.65
2022-10-31T11:36:02.203Z,19.76
2022-10-31T11:37:02.223Z,19.72
2022-10-31T11:38:02.536Z,19.70
2022-10-31T11:39:02.162Z,19.69
2022-10-31T11:40:02.166Z,19.70
2022-10-31T11:41:02.143Z,19.70
2022-10-31T11:42:07.706Z,19.73
2022-10-31T11:43:03.120Z,19.68
2022-10-31T11:44:02.149Z,19.61
2022-10-31T11:45:02.118Z,19.63
2022-10-31T11:46:02.093Z,19.63
2022-10-31T11:47:02.078Z,19.72
2022-10-31T11:48:02.740Z,19.72
2022-10-31T11:49:02.078Z,19.79
2022-10-31T11:50:02.062Z,19.91
2022-10-31T11:51:02.037Z,19.78
2022-10-31T11:52:02.027Z,19.78
2022-10-31T11:53:02.017Z,19.63
2022-10-31T11:54:03.212Z,19.68
2022-10-31T11:55:02.052Z,19.66
2022-10-31T11:56:01.982Z,19.78
2022-10-31T11:57:01.972Z,19.78
2022-10-31T11:58:02.413Z,19.76
2022-10-31T11:59:01.947Z,19.69
2022-10-31T12:00:01.949Z,19.63
2022-10-31T12:01:01.926Z,19.63
2022-10-31T12:02:02.105Z,19.78
2022-10-31T12:03:02.457Z,19.75
2022-10-31T12:04:01.910Z,19.76
2022-10-31T12:05:01.930Z,19.83
2022-10-31T12:06:01.873Z,19.80
2022-10-31T12:07:01.860Z,19.83
2022-10-31T12:08:04.438Z,19.87
2022-10-31T12:09:01.840Z,19.84
2022-10-31T12:10:01.852Z,19.80
2022-10-31T12:11:01.817Z,19.79
2022-10-31T12:12:01.808Z,19.75
2022-10-31T12:13:02.331Z,19.72
2022-10-31T12:14:04.044Z,19.75
2022-10-31T12:15:01.787Z,19.69
2022-10-31T12:16:01.769Z,19.76
2022-10-31T12:17:01.797Z,19.78
2022-10-31T12:18:01.780Z,19.80
2022-10-31T12:19:01.731Z,19.80
2022-10-31T12:20:01.736Z,19.79
2022-10-31T12:21:01.732Z,19.86
2022-10-31T12:22:01.700Z,19.84
2022-10-31T12:23:02.043Z,19.83
2022-10-31T12:24:01.718Z,19.87
2022-10-31T12:25:01.675Z,19.88
2022-10-31T12:26:01.655Z,19.84
2022-10-31T12:27:01.645Z,19.78
2022-10-31T12:28:01.634Z,19.76
2022-10-31T12:29:01.622Z,19.65
2022-10-31T12:30:01.657Z,19.70
2022-10-31T12:31:01.598Z,19.72
2022-10-31T12:32:01.589Z,19.65
2022-10-31T12:33:01.930Z,19.65
2022-10-31T12:34:01.574Z,19.66
2022-10-31T12:35:01.573Z,19.63
2022-10-31T12:36:01.546Z,19.70
2022-10-31T12:37:01.556Z,19.61
2022-10-31T12:38:01.911Z,19.65
2022-10-31T12:39:01.511Z,19.65
2022-10-31T12:40:01.512Z,19.63
2022-10-31T12:41:01.490Z,19.55
2022-10-31T12:42:01.480Z,19.58
2022-10-31T12:43:01.794Z,19.57
2022-10-31T12:44:01.458Z,19.55
2022-10-31T12:45:01.457Z,19.58
2022-10-31T12:46:01.445Z,19.55
2022-10-31T12:47:01.427Z,19.57
2022-10-31T12:48:01.416Z,19.65
2022-10-31T12:49:01.401Z,19.69
2022-10-31T12:50:01.409Z,19.66
2022-10-31T12:51:01.380Z,19.61
2022-10-31T12:52:01.391Z,19.61